sensor_id;sensor_type;location;lat;lon;timestamp;noise_LAeq;noise_LA_min;noise_LA_max;noise_LA01;noise_LA95
41518;Laerm;27249;48.094;-1.690;2023-08-20T00:01:38;47.08;41.06;55.99;;
41518;Laerm;27249;48.094;-1.690;2023-08-20T00:04:04;48.53;41.68;60.52;;
41518;Laerm;27249;48.094;-1.690;2023-08-20T00:06:29;45.00;41.68;56.74;;
41518;Laerm;27249;48.094;-1.690;2023-08-20T00:08:54;44.90;41.38;54.90;;
41518;Laerm;27249;48.094;-1.690;2023-08-20T00:11:20;49.38;42.22;60.15;;
41518;Laerm;27249;48.094;-1.690;2023-08-20T00:13:45;48.35;41.53;59.19;;
41518;Laerm;27249;48.094;-1.690;2023-08-20T00:16:10;49.22;41.53;60.18;;
41518;Laerm;27249;48.094;-1.690;2023-08-20T00:18:37;50.91;41.38;69.05;;
41518;Laerm;27249;48.094;-1.690;2023-08-20T00:21:03;57.45;43.14;76.28;;
41518;Laerm;27249;48.094;-1.690;2023-08-20T00:23:29;48.41;42.03;60.28;;
41518;Laerm;27249;48.094;-1.690;2023-08-20T00:25:55;50.32;42.22;63.66;;
41518;Laerm;27249;48.094;-1.690;2023-08-20T00:28:20;44.61;41.30;55.11;;
41518;Laerm;27249;48.094;-1.690;2023-08-20T00:30:45;44.97;41.46;54.32;;
41518;Laerm;27249;48.094;-1.690;2023-08-20T00:33:12;47.38;41.61;60.24;;
41518;Laerm;27249;48.094;-1.690;2023-08-20T00:35:38;47.35;41.46;60.23;;
41518;Laerm;27249;48.094;-1.690;2023-08-20T00:38:03;49.23;42.03;59.86;;
41518;Laerm;27249;48.094;-1.690;2023-08-20T00:40:28;49.96;41.96;64.59;;
41518;Laerm;27249;48.094;-1.690;2023-08-20T00:42:55;48.85;42.09;60.63;;
41518;Laerm;27249;48.094;-1.690;2023-08-20T00:45:21;43.83;41.96;48.61;;
41518;Laerm;27249;48.094;-1.690;2023-08-20T00:47:47;51.86;41.68;65.74;;
41518;Laerm;27249;48.094;-1.690;2023-08-20T00:50:13;49.35;41.46;64.55;;
41518;Laerm;27249;48.094;-1.690;2023-08-20T00:52:39;48.47;41.96;59.47;;
41518;Laerm;27249;48.094;-1.690;2023-08-20T00:55:11;48.42;41.30;60.77;;
41518;Laerm;27249;48.094;-1.690;2023-08-20T00:57:38;49.57;41.30;62.18;;
41518;Laerm;27249;48.094;-1.690;2023-08-20T01:00:03;45.97;41.22;58.16;;
41518;Laerm;27249;48.094;-1.690;2023-08-20T01:02:32;47.16;41.41;63.71;;
41518;Laerm;27249;48.094;-1.690;2023-08-20T01:04:58;46.77;41.38;59.44;;
41518;Laerm;27249;48.094;-1.690;2023-08-20T01:07:27;46.02;41.82;55.61;;
41518;Laerm;27249;48.094;-1.690;2023-08-20T01:12:22;46.56;41.96;60.14;;
41518;Laerm;27249;48.094;-1.690;2023-08-20T01:14:48;49.25;41.38;61.67;;
41518;Laerm;27249;48.094;-1.690;2023-08-20T01:17:13;46.63;41.75;56.43;;
41518;Laerm;27249;48.094;-1.690;2023-08-20T01:19:38;45.93;41.53;53.94;;
41518;Laerm;27249;48.094;-1.690;2023-08-20T01:22:21;47.15;41.14;61.23;;
41518;Laerm;27249;48.094;-1.690;2023-08-20T01:30:01;47.08;41.61;57.13;;
41518;Laerm;27249;48.094;-1.690;2023-08-20T01:32:28;47.64;41.61;59.17;;
41518;Laerm;27249;48.094;-1.690;2023-08-20T01:34:53;45.97;42.16;55.73;;
41518;Laerm;27249;48.094;-1.690;2023-08-20T01:37:19;46.65;41.61;57.54;;
41518;Laerm;27249;48.094;-1.690;2023-08-20T01:39:44;48.25;41.38;69.67;;
41518;Laerm;27249;48.094;-1.690;2023-08-20T01:42:09;47.73;40.43;60.92;;
41518;Laerm;27249;48.094;-1.690;2023-08-20T01:44:34;45.90;40.98;59.49;;
41518;Laerm;27249;48.094;-1.690;2023-08-20T01:46:59;45.12;41.22;54.48;;
41518;Laerm;27249;48.094;-1.690;2023-08-20T01:49:25;50.83;40.96;71.64;;
41518;Laerm;27249;48.094;-1.690;2023-08-20T01:51:50;44.95;41.38;57.35;;
41518;Laerm;27249;48.094;-1.690;2023-08-20T01:54:15;48.87;41.75;59.64;;
41518;Laerm;27249;48.094;-1.690;2023-08-20T01:56:40;45.57;41.06;56.38;;
41518;Laerm;27249;48.094;-1.690;2023-08-20T01:59:06;43.74;41.53;58.12;;
41518;Laerm;27249;48.094;-1.690;2023-08-20T02:01:31;43.59;41.30;52.87;;
41518;Laerm;27249;48.094;-1.690;2023-08-20T02:03:56;43.94;41.46;48.61;;
41518;Laerm;27249;48.094;-1.690;2023-08-20T02:06:21;45.62;40.80;56.87;;
41518;Laerm;27249;48.094;-1.690;2023-08-20T02:08:47;45.79;41.22;57.15;;
41518;Laerm;27249;48.094;-1.690;2023-08-20T02:11:12;46.81;41.22;59.73;;
41518;Laerm;27249;48.094;-1.690;2023-08-20T02:13:37;43.72;41.14;45.80;;
41518;Laerm;27249;48.094;-1.690;2023-08-20T02:16:03;46.62;41.82;60.00;;
41518;Laerm;27249;48.094;-1.690;2023-08-20T02:18:29;43.61;41.06;48.10;;
41518;Laerm;27249;48.094;-1.690;2023-08-20T02:20:54;47.47;41.06;58.21;;
41518;Laerm;27249;48.094;-1.690;2023-08-20T02:23:20;50.22;41.68;63.96;;
41518;Laerm;27249;48.094;-1.690;2023-08-20T02:25:45;46.16;41.14;58.27;;
41518;Laerm;27249;48.094;-1.690;2023-08-20T02:28:11;46.86;41.75;56.48;;
41518;Laerm;27249;48.094;-1.690;2023-08-20T02:30:40;44.64;41.30;52.91;;
41518;Laerm;27249;48.094;-1.690;2023-08-20T02:33:06;47.27;41.14;60.49;;
41518;Laerm;27249;48.094;-1.690;2023-08-20T02:35:31;46.96;41.22;57.60;;
41518;Laerm;27249;48.094;-1.690;2023-08-20T02:37:56;45.13;41.30;54.34;;
41518;Laerm;27249;48.094;-1.690;2023-08-20T02:40:21;50.13;41.53;62.50;;
41518;Laerm;27249;48.094;-1.690;2023-08-20T02:42:47;46.91;42.09;57.71;;
41518;Laerm;27249;48.094;-1.690;2023-08-20T02:45:12;46.23;41.53;58.80;;
41518;Laerm;27249;48.094;-1.690;2023-08-20T02:47:38;47.30;42.03;58.16;;
41518;Laerm;27249;48.094;-1.690;2023-08-20T02:50:03;47.31;41.68;57.81;;
41518;Laerm;27249;48.094;-1.690;2023-08-20T02:52:29;44.86;41.89;54.70;;
41518;Laerm;27249;48.094;-1.690;2023-08-20T02:54:54;43.67;41.46;51.70;;
41518;Laerm;27249;48.094;-1.690;2023-08-20T02:57:19;45.83;41.14;56.54;;
41518;Laerm;27249;48.094;-1.690;2023-08-20T02:59:44;49.17;41.06;63.49;;
41518;Laerm;27249;48.094;-1.690;2023-08-20T03:02:10;43.86;41.68;60.02;;
41518;Laerm;27249;48.094;-1.690;2023-08-20T03:04:35;43.64;41.61;47.98;;
41518;Laerm;27249;48.094;-1.690;2023-08-20T03:07:00;47.71;42.22;61.33;;
41518;Laerm;27249;48.094;-1.690;2023-08-20T03:09:25;47.89;41.89;60.00;;
41518;Laerm;27249;48.094;-1.690;2023-08-20T03:11:50;52.46;41.75;71.61;;
41518;Laerm;27249;48.094;-1.690;2023-08-20T03:14:16;46.68;42.03;56.20;;
41518;Laerm;27249;48.094;-1.690;2023-08-20T03:16:41;47.23;41.82;61.42;;
41518;Laerm;27249;48.094;-1.690;2023-08-20T03:19:06;44.26;41.89;54.85;;
41518;Laerm;27249;48.094;-1.690;2023-08-20T03:21:31;50.87;42.29;66.43;;
41518;Laerm;27249;48.094;-1.690;2023-08-20T03:23:57;43.69;40.98;48.29;;
41518;Laerm;27249;48.094;-1.690;2023-08-20T03:26:22;48.75;41.30;63.18;;
41518;Laerm;27249;48.094;-1.690;2023-08-20T03:28:47;47.97;41.30;60.83;;
41518;Laerm;27249;48.094;-1.690;2023-08-20T03:31:12;48.15;41.61;62.65;;
41518;Laerm;27249;48.094;-1.690;2023-08-20T03:33:38;48.18;41.61;56.40;;
41518;Laerm;27249;48.094;-1.690;2023-08-20T03:36:03;43.85;41.68;55.62;;
41518;Laerm;27249;48.094;-1.690;2023-08-20T03:38:28;47.36;41.82;60.86;;
41518;Laerm;27249;48.094;-1.690;2023-08-20T03:40:54;49.57;42.35;63.82;;
41518;Laerm;27249;48.094;-1.690;2023-08-20T03:43:20;48.83;42.29;60.59;;
41518;Laerm;27249;48.094;-1.690;2023-08-20T03:45:49;46.08;41.53;58.17;;
41518;Laerm;27249;48.094;-1.690;2023-08-20T03:48:14;45.38;41.68;58.08;;
41518;Laerm;27249;48.094;-1.690;2023-08-20T03:50:39;47.37;42.47;60.03;;
41518;Laerm;27249;48.094;-1.690;2023-08-20T03:53:04;48.40;42.29;64.76;;
41518;Laerm;27249;48.094;-1.690;2023-08-20T03:55:30;50.77;42.29;67.19;;
41518;Laerm;27249;48.094;-1.690;2023-08-20T03:57:55;49.83;41.46;71.63;;
41518;Laerm;27249;48.094;-1.690;2023-08-20T04:00:20;49.81;41.61;66.11;;
41518;Laerm;27249;48.094;-1.690;2023-08-20T04:02:45;53.26;41.82;69.99;;
41518;Laerm;27249;48.094;-1.690;2023-08-20T04:05:10;52.46;41.75;69.99;;
41518;Laerm;27249;48.094;-1.690;2023-08-20T04:07:36;49.47;42.29;62.47;;
41518;Laerm;27249;48.094;-1.690;2023-08-20T04:10:01;49.99;41.89;65.04;;
41518;Laerm;27249;48.094;-1.690;2023-08-20T04:12:26;53.15;41.46;67.59;;
41518;Laerm;27249;48.094;-1.690;2023-08-20T04:14:51;55.25;41.75;80.81;;
41518;Laerm;27249;48.094;-1.690;2023-08-20T04:17:16;53.12;42.36;68.68;;
41518;Laerm;27249;48.094;-1.690;2023-08-20T04:19:42;50.74;41.96;66.01;;
41518;Laerm;27249;48.094;-1.690;2023-08-20T04:22:07;53.34;42.16;67.73;;
41518;Laerm;27249;48.094;-1.690;2023-08-20T04:24:32;49.93;42.03;64.54;;
41518;Laerm;27249;48.094;-1.690;2023-08-20T04:26:57;50.97;42.82;66.37;;
41518;Laerm;27249;48.094;-1.690;2023-08-20T04:29:23;50.41;42.53;68.94;;
41518;Laerm;27249;48.094;-1.690;2023-08-20T04:31:48;51.51;42.47;65.29;;
41518;Laerm;27249;48.094;-1.690;2023-08-20T04:34:13;48.62;41.82;68.22;;
41518;Laerm;27249;48.094;-1.690;2023-08-20T04:36:38;48.52;41.89;64.65;;
41518;Laerm;27249;48.094;-1.690;2023-08-20T04:39:03;56.20;42.22;78.53;;
41518;Laerm;27249;48.094;-1.690;2023-08-20T04:41:29;48.38;41.14;64.84;;
41518;Laerm;27249;48.094;-1.690;2023-08-20T04:43:54;50.47;42.09;66.15;;
41518;Laerm;27249;48.094;-1.690;2023-08-20T04:46:20;49.22;41.96;66.78;;
41518;Laerm;27249;48.094;-1.690;2023-08-20T04:48:45;49.62;42.47;62.33;;
41518;Laerm;27249;48.094;-1.690;2023-08-20T04:51:11;47.69;42.16;58.00;;
41518;Laerm;27249;48.094;-1.690;2023-08-20T04:53:36;51.92;43.24;63.82;;
41518;Laerm;27249;48.094;-1.690;2023-08-20T04:56:01;50.76;42.88;67.78;;
41518;Laerm;27249;48.094;-1.690;2023-08-20T04:58:27;54.09;42.82;66.07;;
41518;Laerm;27249;48.094;-1.690;2023-08-20T05:00:52;51.73;42.16;67.88;;
41518;Laerm;27249;48.094;-1.690;2023-08-20T05:03:17;50.70;42.03;62.51;;
41518;Laerm;27249;48.094;-1.690;2023-08-20T05:05:47;52.80;41.96;72.36;;
41518;Laerm;27249;48.094;-1.690;2023-08-20T05:08:12;49.04;42.41;66.19;;
41518;Laerm;27249;48.094;-1.690;2023-08-20T05:10:38;51.03;42.29;62.40;;
41518;Laerm;27249;48.094;-1.690;2023-08-20T05:13:05;51.92;43.24;61.00;;
41518;Laerm;27249;48.094;-1.690;2023-08-20T05:15:30;50.40;42.53;62.07;;
41518;Laerm;27249;48.094;-1.690;2023-08-20T05:17:55;54.61;42.76;67.75;;
41518;Laerm;27249;48.094;-1.690;2023-08-20T05:20:20;55.39;42.82;73.03;;
41518;Laerm;27249;48.094;-1.690;2023-08-20T05:22:45;57.35;42.93;80.70;;
41518;Laerm;27249;48.094;-1.690;2023-08-20T05:25:11;55.82;43.58;77.76;;
41518;Laerm;27249;48.094;-1.690;2023-08-20T05:27:36;49.15;43.09;63.39;;
41518;Laerm;27249;48.094;-1.690;2023-08-20T05:30:01;50.89;42.93;59.45;;
41518;Laerm;27249;48.094;-1.690;2023-08-20T05:32:26;51.87;43.24;68.66;;
41518;Laerm;27249;48.094;-1.690;2023-08-20T05:34:51;52.69;43.09;64.01;;
41518;Laerm;27249;48.094;-1.690;2023-08-20T05:37:17;55.58;42.59;68.77;;
41518;Laerm;27249;48.094;-1.690;2023-08-20T05:39:42;68.17;42.71;87.20;;
41518;Laerm;27249;48.094;-1.690;2023-08-20T05:42:08;56.35;41.96;79.52;;
41518;Laerm;27249;48.094;-1.690;2023-08-20T05:44:33;50.67;42.47;66.26;;
41518;Laerm;27249;48.094;-1.690;2023-08-20T05:46:58;47.99;42.03;61.27;;
41518;Laerm;27249;48.094;-1.690;2023-08-20T05:49:24;47.55;42.59;60.22;;
41518;Laerm;27249;48.094;-1.690;2023-08-20T05:51:49;50.23;42.29;64.98;;
41518;Laerm;27249;48.094;-1.690;2023-08-20T05:54:14;49.32;42.29;65.57;;
41518;Laerm;27249;48.094;-1.690;2023-08-20T05:56:39;49.58;41.89;61.03;;
41518;Laerm;27249;48.094;-1.690;2023-08-20T05:59:04;51.81;42.76;65.54;;
41518;Laerm;27249;48.094;-1.690;2023-08-20T06:01:30;52.30;42.71;70.29;;
41518;Laerm;27249;48.094;-1.690;2023-08-20T06:03:55;52.99;43.24;64.81;;
41518;Laerm;27249;48.094;-1.690;2023-08-20T06:06:22;49.23;42.35;60.28;;
41518;Laerm;27249;48.094;-1.690;2023-08-20T06:08:47;48.54;42.59;57.81;;
41518;Laerm;27249;48.094;-1.690;2023-08-20T06:11:12;46.60;41.89;54.22;;
41518;Laerm;27249;48.094;-1.690;2023-08-20T06:13:38;49.82;42.35;70.05;;
41518;Laerm;27249;48.094;-1.690;2023-08-20T06:16:03;50.33;41.68;65.82;;
41518;Laerm;27249;48.094;-1.690;2023-08-20T06:18:28;51.39;41.96;64.74;;
41518;Laerm;27249;48.094;-1.690;2023-08-20T06:20:53;50.19;42.35;63.25;;
41518;Laerm;27249;48.094;-1.690;2023-08-20T06:23:19;48.62;41.82;60.13;;
41518;Laerm;27249;48.094;-1.690;2023-08-20T06:25:44;49.30;43.00;59.40;;
41518;Laerm;27249;48.094;-1.690;2023-08-20T06:28:09;48.81;43.04;58.42;;
41518;Laerm;27249;48.094;-1.690;2023-08-20T06:30:35;49.47;42.76;59.37;;
41518;Laerm;27249;48.094;-1.690;2023-08-20T06:33:00;51.44;43.72;64.17;;
41518;Laerm;27249;48.094;-1.690;2023-08-20T06:35:25;55.35;43.39;71.03;;
41518;Laerm;27249;48.094;-1.690;2023-08-20T06:37:50;53.99;43.68;68.05;;
41518;Laerm;27249;48.094;-1.690;2023-08-20T06:40:15;61.36;43.39;80.57;;
41518;Laerm;27249;48.094;-1.690;2023-08-20T06:42:41;50.68;42.71;72.99;;
41518;Laerm;27249;48.094;-1.690;2023-08-20T06:45:06;49.64;42.41;66.92;;
41518;Laerm;27249;48.094;-1.690;2023-08-20T06:47:33;50.82;42.53;66.78;;
41518;Laerm;27249;48.094;-1.690;2023-08-20T06:49:58;52.01;42.82;65.70;;
41518;Laerm;27249;48.094;-1.690;2023-08-20T06:52:23;48.28;41.89;61.97;;
41518;Laerm;27249;48.094;-1.690;2023-08-20T06:54:48;52.66;43.19;64.10;;
41518;Laerm;27249;48.094;-1.690;2023-08-20T06:57:13;50.47;42.76;61.03;;
41518;Laerm;27249;48.094;-1.690;2023-08-20T06:59:39;52.63;43.39;65.31;;
41518;Laerm;27249;48.094;-1.690;2023-08-20T07:02:04;51.09;42.65;62.69;;
41518;Laerm;27249;48.094;-1.690;2023-08-20T07:04:29;51.55;43.19;61.26;;
41518;Laerm;27249;48.094;-1.690;2023-08-20T07:06:55;52.61;43.29;63.95;;
41518;Laerm;27249;48.094;-1.690;2023-08-20T07:09:20;56.32;42.59;70.64;;
41518;Laerm;27249;48.094;-1.690;2023-08-20T07:11:45;49.27;43.34;59.66;;
41518;Laerm;27249;48.094;-1.690;2023-08-20T07:14:10;50.57;43.09;59.31;;
41518;Laerm;27249;48.094;-1.690;2023-08-20T07:16:36;51.73;43.24;60.97;;
41518;Laerm;27249;48.094;-1.690;2023-08-20T07:19:01;52.02;42.65;65.08;;
41518;Laerm;27249;48.094;-1.690;2023-08-20T07:21:26;50.92;42.47;63.43;;
41518;Laerm;27249;48.094;-1.690;2023-08-20T07:23:51;51.29;43.14;63.78;;
41518;Laerm;27249;48.094;-1.690;2023-08-20T07:26:17;50.61;42.85;63.11;;
41518;Laerm;27249;48.094;-1.690;2023-08-20T07:28:42;51.54;42.93;60.98;;
41518;Laerm;27249;48.094;-1.690;2023-08-20T07:31:29;51.54;41.88;63.21;;
41518;Laerm;27249;48.094;-1.690;2023-08-20T07:33:54;53.16;43.49;67.62;;
41518;Laerm;27249;48.094;-1.690;2023-08-20T07:36:21;53.09;42.93;65.39;;
41518;Laerm;27249;48.094;-1.690;2023-08-20T07:38:47;54.87;43.04;66.52;;
41518;Laerm;27249;48.094;-1.690;2023-08-20T07:41:12;54.57;46.23;67.08;;
41518;Laerm;27249;48.094;-1.690;2023-08-20T07:43:38;49.89;42.65;61.82;;
41518;Laerm;27249;48.094;-1.690;2023-08-20T07:46:04;53.41;43.19;62.73;;
41518;Laerm;27249;48.094;-1.690;2023-08-20T07:48:29;50.88;41.53;58.96;;
41518;Laerm;27249;48.094;-1.690;2023-08-20T07:50:54;52.92;43.29;62.86;;
41518;Laerm;27249;48.094;-1.690;2023-08-20T07:53:19;51.94;44.58;66.74;;
41518;Laerm;27249;48.094;-1.690;2023-08-20T07:55:45;53.77;41.46;67.37;;
41518;Laerm;27249;48.094;-1.690;2023-08-20T07:58:10;50.99;42.53;59.02;;
41518;Laerm;27249;48.094;-1.690;2023-08-20T08:00:35;54.46;42.22;68.94;;
41518;Laerm;27249;48.094;-1.690;2023-08-20T08:03:01;53.11;41.75;66.98;;
41518;Laerm;27249;48.094;-1.690;2023-08-20T08:05:26;52.45;43.34;69.97;;
41518;Laerm;27249;48.094;-1.690;2023-08-20T08:07:51;52.40;43.14;61.32;;
41518;Laerm;27249;48.094;-1.690;2023-08-20T08:10:16;52.67;42.65;67.36;;
41518;Laerm;27249;48.094;-1.690;2023-08-20T08:12:42;53.26;41.46;68.26;;
41518;Laerm;27249;48.094;-1.690;2023-08-20T08:15:07;51.53;42.29;60.59;;
41518;Laerm;27249;48.094;-1.690;2023-08-20T08:17:32;60.92;42.58;73.26;;
41518;Laerm;27249;48.094;-1.690;2023-08-20T08:19:57;66.54;57.47;73.39;;
41518;Laerm;27249;48.094;-1.690;2023-08-20T08:22:23;66.31;54.06;75.12;;
41518;Laerm;27249;48.094;-1.690;2023-08-20T08:24:48;56.30;45.91;67.27;;
41518;Laerm;27249;48.094;-1.690;2023-08-20T08:27:13;51.47;44.23;58.63;;
41518;Laerm;27249;48.094;-1.690;2023-08-20T08:29:39;51.19;43.81;60.27;;
41518;Laerm;27249;48.094;-1.690;2023-08-20T08:32:04;52.72;43.44;71.25;;
41518;Laerm;27249;48.094;-1.690;2023-08-20T08:34:29;51.73;41.94;63.44;;
41518;Laerm;27249;48.094;-1.690;2023-08-20T08:36:54;53.89;43.34;60.79;;
41518;Laerm;27249;48.094;-1.690;2023-08-20T08:39:20;52.52;44.19;62.31;;
41518;Laerm;27249;48.094;-1.690;2023-08-20T08:41:45;50.68;41.68;57.58;;
41518;Laerm;27249;48.094;-1.690;2023-08-20T08:44:14;54.03;41.75;62.69;;
41518;Laerm;27249;48.094;-1.690;2023-08-20T08:46:39;53.71;42.88;66.78;;
41518;Laerm;27249;48.094;-1.690;2023-08-20T08:49:05;53.95;42.98;69.01;;
41518;Laerm;27249;48.094;-1.690;2023-08-20T08:51:30;54.28;43.24;62.39;;
41518;Laerm;27249;48.094;-1.690;2023-08-20T08:53:56;53.47;41.96;70.60;;
41518;Laerm;27249;48.094;-1.690;2023-08-20T08:56:22;52.40;44.03;61.27;;
41518;Laerm;27249;48.094;-1.690;2023-08-20T08:58:47;53.69;45.11;63.79;;
41518;Laerm;27249;48.094;-1.690;2023-08-20T09:01:13;52.63;43.55;61.87;;
41518;Laerm;27249;48.094;-1.690;2023-08-20T09:03:38;53.79;44.54;59.82;;
41518;Laerm;27249;48.094;-1.690;2023-08-20T09:06:09;54.03;47.72;61.06;;
41518;Laerm;27249;48.094;-1.690;2023-08-20T09:08:35;54.98;43.14;76.05;;
41518;Laerm;27249;48.094;-1.690;2023-08-20T09:11:01;52.11;43.09;68.27;;
41518;Laerm;27249;48.094;-1.690;2023-08-20T09:13:39;53.53;44.51;62.60;;
41518;Laerm;27249;48.094;-1.690;2023-08-20T09:16:08;56.56;43.90;73.22;;
41518;Laerm;27249;48.094;-1.690;2023-08-20T09:18:40;54.63;43.29;68.98;;
41518;Laerm;27249;48.094;-1.690;2023-08-20T09:21:06;54.12;42.93;64.95;;
41518;Laerm;27249;48.094;-1.690;2023-08-20T09:23:32;51.68;43.24;64.28;;
41518;Laerm;27249;48.094;-1.690;2023-08-20T09:25:57;52.05;45.36;62.47;;
41518;Laerm;27249;48.094;-1.690;2023-08-20T09:28:26;51.22;43.39;61.64;;
41518;Laerm;27249;48.094;-1.690;2023-08-20T09:30:54;53.61;46.55;60.83;;
41518;Laerm;27249;48.094;-1.690;2023-08-20T09:33:20;54.24;43.49;63.66;;
41518;Laerm;27249;48.094;-1.690;2023-08-20T09:35:51;51.02;43.86;58.15;;
41518;Laerm;27249;48.094;-1.690;2023-08-20T09:38:20;53.83;44.83;66.53;;
41518;Laerm;27249;48.094;-1.690;2023-08-20T09:40:49;53.48;44.39;64.49;;
41518;Laerm;27249;48.094;-1.690;2023-08-20T09:43:15;53.47;44.58;71.50;;
41518;Laerm;27249;48.094;-1.690;2023-08-20T09:45:40;56.41;45.48;73.01;;
41518;Laerm;27249;48.094;-1.690;2023-08-20T09:48:07;53.34;43.04;62.25;;
41518;Laerm;27249;48.094;-1.690;2023-08-20T09:50:34;50.95;42.47;58.51;;
41518;Laerm;27249;48.094;-1.690;2023-08-20T09:53:22;52.82;43.14;63.59;;
41518;Laerm;27249;48.094;-1.690;2023-08-20T09:55:50;53.77;44.80;62.55;;
41518;Laerm;27249;48.094;-1.690;2023-08-20T09:58:16;52.38;43.24;61.17;;
41518;Laerm;27249;48.094;-1.690;2023-08-20T10:00:41;59.60;44.87;77.54;;
41518;Laerm;27249;48.094;-1.690;2023-08-20T10:03:07;54.54;43.81;63.82;;
41518;Laerm;27249;48.094;-1.690;2023-08-20T10:05:32;54.41;46.48;61.37;;
41518;Laerm;27249;48.094;-1.690;2023-08-20T10:07:58;53.40;44.07;60.09;;
41518;Laerm;27249;48.094;-1.690;2023-08-20T10:10:24;53.33;43.72;63.08;;
41518;Laerm;27249;48.094;-1.690;2023-08-20T10:12:50;52.95;43.86;64.10;;
41518;Laerm;27249;48.094;-1.690;2023-08-20T10:15:15;53.39;44.27;64.26;;
41518;Laerm;27249;48.094;-1.690;2023-08-20T10:17:41;55.43;45.99;70.83;;
41518;Laerm;27249;48.094;-1.690;2023-08-20T10:20:07;53.00;43.14;62.73;;
41518;Laerm;27249;48.094;-1.690;2023-08-20T10:22:39;53.44;46.05;65.31;;
41518;Laerm;27249;48.094;-1.690;2023-08-20T10:25:05;52.42;45.48;60.89;;
41518;Laerm;27249;48.094;-1.690;2023-08-20T10:27:31;55.68;48.45;62.55;;
41518;Laerm;27249;48.094;-1.690;2023-08-20T10:29:57;51.15;42.30;60.38;;
41518;Laerm;27249;48.094;-1.690;2023-08-20T10:35:07;52.44;44.45;60.61;;
41518;Laerm;27249;48.094;-1.690;2023-08-20T10:37:33;52.06;42.88;61.14;;
41518;Laerm;27249;48.094;-1.690;2023-08-20T10:39:59;54.03;43.68;62.17;;
41518;Laerm;27249;48.094;-1.690;2023-08-20T10:42:27;53.24;43.24;63.13;;
41518;Laerm;27249;48.094;-1.690;2023-08-20T10:44:56;52.57;44.90;61.22;;
41518;Laerm;27249;48.094;-1.690;2023-08-20T10:47:22;54.04;44.39;63.35;;
41518;Laerm;27249;48.094;-1.690;2023-08-20T10:49:51;55.37;45.04;65.13;;
41518;Laerm;27249;48.094;-1.690;2023-08-20T10:52:17;53.43;43.29;64.33;;
41518;Laerm;27249;48.094;-1.690;2023-08-20T10:54:43;51.91;42.53;59.88;;
41518;Laerm;27249;48.094;-1.690;2023-08-20T10:57:08;52.77;42.71;60.83;;
41518;Laerm;27249;48.094;-1.690;2023-08-20T10:59:34;52.34;46.43;64.02;;
41518;Laerm;27249;48.094;-1.690;2023-08-20T11:02:04;52.01;44.43;65.03;;
41518;Laerm;27249;48.094;-1.690;2023-08-20T11:04:32;53.70;45.91;63.45;;
41518;Laerm;27249;48.094;-1.690;2023-08-20T11:06:58;53.33;45.45;61.74;;
41518;Laerm;27249;48.094;-1.690;2023-08-20T11:09:24;53.96;45.66;65.18;;
41518;Laerm;27249;48.094;-1.690;2023-08-20T11:11:50;51.24;41.68;63.60;;
41518;Laerm;27249;48.094;-1.690;2023-08-20T11:14:17;53.70;42.82;72.64;;
41518;Laerm;27249;48.094;-1.690;2023-08-20T11:16:43;53.33;43.68;63.78;;
41518;Laerm;27249;48.094;-1.690;2023-08-20T11:19:09;51.74;42.35;61.41;;
41518;Laerm;27249;48.094;-1.690;2023-08-20T11:21:35;51.80;43.54;64.47;;
41518;Laerm;27249;48.094;-1.690;2023-08-20T11:24:00;51.30;41.75;65.34;;
41518;Laerm;27249;48.094;-1.690;2023-08-20T11:26:26;50.72;42.47;59.83;;
41518;Laerm;27249;48.094;-1.690;2023-08-20T11:28:51;52.20;43.63;65.08;;
41518;Laerm;27249;48.094;-1.690;2023-08-20T11:31:16;51.90;42.98;61.63;;
41518;Laerm;27249;48.094;-1.690;2023-08-20T11:33:41;53.77;45.20;73.94;;
41518;Laerm;27249;48.094;-1.690;2023-08-20T11:36:07;49.91;42.88;62.50;;
41518;Laerm;27249;48.094;-1.690;2023-08-20T11:38:32;52.19;43.99;63.97;;
41518;Laerm;27249;48.094;-1.690;2023-08-20T11:40:58;50.00;41.96;59.19;;
41518;Laerm;27249;48.094;-1.690;2023-08-20T11:43:29;52.54;43.77;59.63;;
41518;Laerm;27249;48.094;-1.690;2023-08-20T11:45:54;56.82;47.10;68.98;;
41518;Laerm;27249;48.094;-1.690;2023-08-20T11:48:20;52.03;42.93;66.64;;
41518;Laerm;27249;48.094;-1.690;2023-08-20T11:50:46;52.26;42.16;65.00;;
41518;Laerm;27249;48.094;-1.690;2023-08-20T11:53:11;51.72;42.03;63.33;;
41518;Laerm;27249;48.094;-1.690;2023-08-20T11:55:37;52.51;43.04;63.20;;
41518;Laerm;27249;48.094;-1.690;2023-08-20T11:58:02;49.79;42.53;61.93;;
41518;Laerm;27249;48.094;-1.690;2023-08-20T12:00:30;51.62;42.29;61.57;;
41518;Laerm;27249;48.094;-1.690;2023-08-20T12:02:55;61.56;42.93;79.77;;
41518;Laerm;27249;48.094;-1.690;2023-08-20T12:05:27;58.39;42.22;79.94;;
41518;Laerm;27249;48.094;-1.690;2023-08-20T12:07:59;55.58;41.96;75.47;;
41518;Laerm;27249;48.094;-1.690;2023-08-20T12:10:26;51.51;42.47;61.07;;
41518;Laerm;27249;48.094;-1.690;2023-08-20T12:12:51;55.36;41.46;74.33;;
41518;Laerm;27249;48.094;-1.690;2023-08-20T12:15:17;51.96;42.76;65.88;;
41518;Laerm;27249;48.094;-1.690;2023-08-20T12:17:44;52.15;41.30;64.92;;
41518;Laerm;27249;48.094;-1.690;2023-08-20T12:20:09;52.52;41.30;70.19;;
41518;Laerm;27249;48.094;-1.690;2023-08-20T12:22:40;52.68;43.94;63.38;;
41518;Laerm;27249;48.094;-1.690;2023-08-20T12:25:05;51.46;42.59;60.39;;
41518;Laerm;27249;48.094;-1.690;2023-08-20T12:27:31;52.81;43.86;62.50;;
41518;Laerm;27249;48.094;-1.690;2023-08-20T12:29:56;53.42;42.71;65.53;;
41518;Laerm;27249;48.094;-1.690;2023-08-20T12:32:22;53.87;41.68;64.91;;
41518;Laerm;27249;48.094;-1.690;2023-08-20T12:34:47;51.66;42.03;65.44;;
41518;Laerm;27249;48.094;-1.690;2023-08-20T12:37:12;51.28;44.54;58.05;;
41518;Laerm;27249;48.094;-1.690;2023-08-20T12:39:37;52.49;42.29;60.26;;
41518;Laerm;27249;48.094;-1.690;2023-08-20T12:42:02;53.87;42.65;60.60;;
41518;Laerm;27249;48.094;-1.690;2023-08-20T12:44:28;55.65;43.77;69.74;;
41518;Laerm;27249;48.094;-1.690;2023-08-20T12:46:53;52.26;42.35;61.31;;
41518;Laerm;27249;48.094;-1.690;2023-08-20T12:49:18;53.11;42.16;62.31;;
41518;Laerm;27249;48.094;-1.690;2023-08-20T12:51:43;53.64;45.20;61.12;;
41518;Laerm;27249;48.094;-1.690;2023-08-20T12:54:08;60.62;43.58;74.87;;
41518;Laerm;27249;48.094;-1.690;2023-08-20T12:56:34;52.35;42.22;62.22;;
41518;Laerm;27249;48.094;-1.690;2023-08-20T12:59:00;53.48;43.54;62.43;;
41518;Laerm;27249;48.094;-1.690;2023-08-20T13:01:26;52.77;43.77;65.38;;
41518;Laerm;27249;48.094;-1.690;2023-08-20T13:03:51;50.73;42.41;58.82;;
41518;Laerm;27249;48.094;-1.690;2023-08-20T13:06:16;53.13;43.81;61.37;;
41518;Laerm;27249;48.094;-1.690;2023-08-20T13:08:42;50.82;42.09;61.77;;
41518;Laerm;27249;48.094;-1.690;2023-08-20T13:11:07;53.49;44.87;62.90;;
41518;Laerm;27249;48.094;-1.690;2023-08-20T13:13:34;53.45;43.39;63.37;;
41518;Laerm;27249;48.094;-1.690;2023-08-20T13:16:00;52.47;42.41;61.99;;
41518;Laerm;27249;48.094;-1.690;2023-08-20T13:18:25;53.96;43.14;64.33;;
41518;Laerm;27249;48.094;-1.690;2023-08-20T13:20:52;52.25;42.41;62.78;;
41518;Laerm;27249;48.094;-1.690;2023-08-20T13:23:17;53.44;43.29;63.23;;
41518;Laerm;27249;48.094;-1.690;2023-08-20T13:25:42;53.74;45.60;63.28;;
41518;Laerm;27249;48.094;-1.690;2023-08-20T13:28:09;53.86;43.72;67.28;;
41518;Laerm;27249;48.094;-1.690;2023-08-20T13:30:34;54.61;43.09;68.33;;
41518;Laerm;27249;48.094;-1.690;2023-08-20T13:32:59;52.57;43.94;61.71;;
41518;Laerm;27249;48.094;-1.690;2023-08-20T13:35:25;54.80;42.65;66.37;;